Terminal Aerodrome Forecast
Issued by NWS Jackson, MS

Home | Current Version | Previous Version | Text Only | Print | Product List | Glossary On
Versions: 1 2 3 4 5 6 7 8 9 10 11 12 13 14 15
000
FTUS44 KMEG 221506 AAB
TAFTUP
TAF AMD
KTUP 221506Z 2215/2312 19006KT P6SM BKN005 OVC009
      TEMPO 2215/2217 SCT005 OVC009
     FM221800 19010G16KT P6SM -SHRA SCT004 OVC007
     FM222200 19010G16KT 6SM -SHRA VCTS SCT004 OVC007CB
     FM230400 21008KT 4SM -SHRA BR BKN007 OVC012
     FM230800 27004KT 6SM BR VCSH BKN012 OVC080=

USA.gov is the U.S. government's official web portal to all federal, state and local government web resources and services.